Wattensaw, Arkansas
Current Conditions -  °F | °C
As of 3:58 PM on Wednesday 22 Oct 2014 (Local Time) from KLRF Reporting Station
Clear Clear  
Wind Chill: 70°   Ceiling: Unl
Heat Index: 70°   Visibility: 10mi
Dew Point: 48°   Wind: 6mph
Humidity: 45%   Direction: NA
Pressure: 30.17"   Gusts: NA
Location:  34.7557°N, 91.9476°W
Report Text: KLRF 222058Z AUTO VRB05KT 10SM CLR 21/09 A3017 RMK AO2 SLP219 T02130090 56018 $
Loading
Personal Weather Stations






























Interactive Weather Map
Tropical Storm Tracking
New forecast layout! Learn more

10-Day Weather Forecast

Advertisements
Track Severe Weather on mobile